Airfield :
LOGIN :

Register | Disclaimer

   EN    FR    IT 

 










Legend :    VFR   Marginal VFR   IFR   Intensive IFR   Very Intensive IFR
Visi :
Ceiling :
>= 8 km
>= 3000ft
5 to 8 km
1000 to 3000 ft
1500m to 5 km
500 to 1000 ft
800 to 1500m
200 to 500 ft
< 800m
< 200 ft
Symbols :   Thunderstorms  Fog  Heavy snow  Heavy precipitations  Wind > 20 kt
SIGMETs :     Misc.  Thunderstorms  Icing  Turbulence  Mountain Waves  Volcanic Ashes







- Airport Elevation : 659 ft
- IATA code : LGG


EBLG - Liège

CURRENT METAR :
  • 200620Z 21006KT 180V250 7000 SCT009 16/13 Q1012 TEMPO 4000 SHRA BKN009

EXPIRED METARs :
  • 200550Z 20007KT 5000 BR FEW025 15/13 Q1012 NOSIG
  • 200520Z 23007KT 5000 BR FEW025 15/13 Q1012 NOSIG
  • 200450Z 23008KT 4200 BR FEW025 15/14 Q1012 NOSIG
  • 200420Z 23008KT 3800 BR FEW025 15/14 Q1012 NOSIG
  • 200350Z 22006KT 4000 BR FEW025 14/14 Q1011 NOSIG

TAF TAF EBLG
Valid from the 20 at 06:00 until the 21 at 12:00 UTC


200510Z 2006/2112 22006KT 4000 BR SCT006 BKN009
BECMG 2006/2008 NSW BKN018
PROB40
TEMPO 2007/2011 4000 SHRA BKN018CB
No reported NOTAMs for that airfield.



MET'MAP, your aeronautical weather chart ! - Copyright ORBIFLY December 2007 - Disclaimer

ORBIFLY MET'MAP TEAM :

Programming & Development : Alexandra Zaïnal
Concept & Development : Baudouin d'Aumeries
Co-Development & Prog : Marc-Olivier Méhu
Technical & hardware support : Manuel Goepfert

Contact : metmap@orbifly.com




SOURCES & CREDITS :

   NOAA